Terminal Aerodrome Forecast
Issued by NWS Pendleton, OR

Current Version | Previous Version | Text Only | Print | Product List | Glossary On
Versions: 1 2 3 4 5 6 7 8 9 10 11 12 13 14 15
000
FTUS46 KPDT 182320
TAFPDT
TAF
KPDT 182320Z 1900/1924 28014G24KT P6SM FEW250
     FM190600 27012KT P6SM SKC
     FM191000 22007KT P6SM SKC
     FM191700 28010KT P6SM SKC=

USA.gov is the U.S. government's official web portal to all federal, state and local government web resources and services.